Time,TemperatureF,DewpointF,PressureIn,WindDirection,WindDirectionDegrees,WindSpeedMPH,WindSpeedGustMPH,Humidity,HourlyPrecipIn,Conditions,Clouds,dailyrainin,SoftwareType,DateUTC
2013-09-19 00:02:00,62.0,57.0,29.44,South,173,0.0,0.0,84,0.00,,,-99.99,,2013-09-19 07:02:00,
2013-09-19 00:52:00,60.0,55.0,29.43,South,173,0.0,0.0,85,0.00,,,-99.99,,2013-09-19 07:52:00,
2013-09-19 01:02:00,60.0,55.0,29.43,South,173,0.0,0.0,85,0.00,,,-99.99,,2013-09-19 08:02:00,
2013-09-19 01:52:00,60.0,55.0,29.43,South,173,0.0,0.0,85,0.00,,,-99.99,,2013-09-19 08:52:00,
2013-09-19 02:11:00,59.0,54.0,29.43,South,173,0.0,0.0,85,0.00,,,-99.99,,2013-09-19 09:11:00,
2013-09-19 02:21:00,59.0,54.0,29.43,South,173,0.0,0.0,85,0.00,,,-99.99,,2013-09-19 09:21:00,
2013-09-19 02:33:00,59.0,54.0,29.43,South,173,0.0,0.0,85,0.00,,,-99.99,,2013-09-19 09:33:00,
2013-09-19 03:12:00,58.0,54.0,29.43,South,172,0.0,2.0,86,0.00,,,-99.99,,2013-09-19 10:12:00,
2013-09-19 03:23:00,58.0,54.0,29.43,South,172,0.0,2.0,86,0.00,,,-99.99,,2013-09-19 10:23:00,
2013-09-19 03:52:00,58.0,54.0,29.43,SSE,159,0.0,2.0,86,0.00,,,-99.99,,2013-09-19 10:52:00,
2013-09-19 04:12:00,57.0,53.0,29.43,ESE,115,0.0,2.0,86,0.00,,,-99.99,,2013-09-19 11:12:00,
2013-09-19 04:22:00,57.0,53.0,29.43,ESE,115,0.0,2.0,86,0.00,,,-99.99,,2013-09-19 11:22:00,
2013-09-19 04:52:00,57.0,53.0,29.43,ESE,115,0.0,0.0,87,0.00,,,-99.99,,2013-09-19 11:52:00,
2013-09-19 05:11:00,57.0,53.0,29.43,ESE,115,0.0,0.0,87,0.00,,,-99.99,,2013-09-19 12:11:00,
2013-09-19 05:21:00,57.0,53.0,29.43,ESE,115,0.0,0.0,87,0.00,,,-99.99,,2013-09-19 12:21:00,
2013-09-19 05:32:00,57.0,53.0,29.43,ESE,115,0.0,0.0,87,0.00,,,-99.99,,2013-09-19 12:32:00,
2013-09-19 06:21:00,56.0,52.0,29.43,ESE,114,1.0,2.0,88,0.00,,,-99.99,,2013-09-19 13:21:00,
2013-09-19 08:11:00,56.0,53.0,29.46,ESE,108,0.0,1.0,90,0.00,,,-99.99,,2013-09-19 15:11:00,
2013-09-19 08:22:00,56.0,53.0,29.46,ESE,108,0.0,1.0,90,0.00,,,-99.99,,2013-09-19 15:22:00,
2013-09-19 08:53:00,57.0,54.0,29.46,ESE,108,0.0,1.0,90,0.00,,,-99.99,,2013-09-19 15:53:00,
2013-09-19 09:03:00,57.0,54.0,29.46,ESE,108,0.0,1.0,90,0.00,,,-99.99,,2013-09-19 16:03:00,
2013-09-19 09:24:00,60.0,57.0,29.47,ESE,108,0.0,1.0,89,0.00,,,-99.99,,2013-09-19 16:24:00,
2013-09-19 09:33:00,60.0,57.0,29.47,ESE,108,0.0,1.0,89,0.00,,,-99.99,,2013-09-19 16:33:00,
2013-09-19 10:12:00,64.0,59.0,29.47,West,261,1.0,6.0,83,0.00,,,-99.99,,2013-09-19 17:12:00,
2013-09-19 10:23:00,64.0,59.0,29.47,West,261,1.0,6.0,83,0.00,,,-99.99,,2013-09-19 17:23:00,
2013-09-19 10:53:00,64.0,58.0,29.49,West,268,1.0,8.0,82,0.00,,,-99.99,,2013-09-19 17:53:00,
2013-09-19 11:11:00,67.0,60.0,29.49,WNW,292,1.0,8.0,77,0.00,,,-99.99,,2013-09-19 18:11:00,
2013-09-19 11:22:00,67.0,60.0,29.49,WNW,292,1.0,8.0,77,0.00,,,-99.99,,2013-09-19 18:22:00,
2013-09-19 11:32:00,67.0,60.0,29.49,WNW,292,1.0,8.0,77,0.00,,,-99.99,,2013-09-19 18:32:00,
2013-09-19 12:12:00,69.0,59.0,29.48,West,273,3.0,9.0,70,0.00,,,-99.99,,2013-09-19 19:12:00,
2013-09-19 12:21:00,69.0,59.0,29.48,West,273,3.0,9.0,70,0.00,,,-99.99,,2013-09-19 19:21:00,
2013-09-19 12:52:00,71.0,59.0,29.47,WNW,288,4.0,9.0,66,0.00,,,-99.99,,2013-09-19 19:52:00,
2013-09-19 13:12:00,73.0,60.0,29.47,SW,223,1.0,5.0,63,0.00,,,-99.99,,2013-09-19 20:12:00,
2013-09-19 13:21:00,73.0,60.0,29.47,SW,223,1.0,5.0,63,0.00,,,-99.99,,2013-09-19 20:21:00,
2013-09-19 13:52:00,74.0,60.0,29.47,South,182,1.0,7.0,62,0.00,,,-99.99,,2013-09-19 20:52:00,
2013-09-19 14:11:00,74.0,61.0,29.46,South,176,1.0,6.0,63,0.00,,,-99.99,,2013-09-19 21:11:00,
2013-09-19 14:22:00,74.0,61.0,29.46,South,176,1.0,6.0,63,0.00,,,-99.99,,2013-09-19 21:22:00,
2013-09-19 14:55:00,74.0,60.0,29.45,West,278,1.0,7.0,61,0.00,,,-99.99,,2013-09-19 21:55:00,
2013-09-19 15:14:00,74.0,60.0,29.44,West,262,1.0,4.0,62,0.00,,,-99.99,,2013-09-19 22:14:00,
2013-09-19 15:24:00,74.0,60.0,29.44,West,262,1.0,4.0,62,0.00,,,-99.99,,2013-09-19 22:24:00,
2013-09-19 15:53:00,75.0,60.0,29.44,SSW,204,1.0,6.0,60,0.00,,,-99.99,,2013-09-19 22:53:00,
2013-09-19 16:12:00,75.0,60.0,29.43,West,267,1.0,5.0,60,0.00,,,-99.99,,2013-09-19 23:12:00,
2013-09-19 16:22:00,75.0,60.0,29.43,West,267,1.0,5.0,60,0.00,,,-99.99,,2013-09-19 23:22:00,
2013-09-19 16:33:00,75.0,60.0,29.43,West,267,1.0,5.0,60,0.00,,,-99.99,,2013-09-19 23:33:00,
2013-09-19 17:21:00,74.0,60.0,29.43,West,260,1.0,6.0,61,0.00,,,-99.99,,2013-09-20 00:21:00,
2013-09-19 17:52:00,73.0,59.0,29.43,SW,215,0.0,5.0,62,0.00,,,-99.99,,2013-09-20 00:52:00,
2013-09-19 18:12:00,71.0,59.0,29.43,SSW,211,0.0,2.0,66,0.00,,,-99.99,,2013-09-20 01:12:00,
2013-09-19 18:22:00,71.0,59.0,29.43,SSW,211,0.0,2.0,66,0.00,,,-99.99,,2013-09-20 01:22:00,
2013-09-19 18:52:00,70.0,59.0,29.43,SSW,207,0.0,2.0,68,0.00,,,-99.99,,2013-09-20 01:52:00,
2013-09-19 19:12:00,68.0,59.0,29.44,South,191,0.0,2.0,72,0.00,,,-99.99,,2013-09-20 02:12:00,
2013-09-19 19:22:00,68.0,59.0,29.44,South,191,0.0,2.0,72,0.00,,,-99.99,,2013-09-20 02:22:00,
2013-09-19 19:52:00,66.0,58.0,29.44,South,191,0.0,1.0,76,0.00,,,-99.99,,2013-09-20 02:52:00,
2013-09-19 20:02:00,66.0,58.0,29.44,South,191,0.0,1.0,76,0.00,,,-99.99,,2013-09-20 03:02:00,
2013-09-19 20:56:00,64.0,58.0,29.46,South,191,0.0,0.0,81,0.00,,,-99.99,,2013-09-20 03:56:00,
2013-09-19 21:14:00,64.0,58.0,29.47,South,191,0.0,0.0,82,0.00,,,-99.99,,2013-09-20 04:14:00,
2013-09-19 21:24:00,64.0,58.0,29.47,South,191,0.0,0.0,82,0.00,,,-99.99,,2013-09-20 04:24:00,
2013-09-19 21:54:00,65.0,59.0,29.47,South,191,0.0,0.0,81,0.00,,,-99.99,,2013-09-20 04:54:00,
2013-09-19 22:13:00,65.0,59.0,29.47,South,191,0.0,0.0,80,0.00,,,-99.99,,2013-09-20 05:13:00,
2013-09-19 22:23:00,65.0,59.0,29.47,South,191,0.0,0.0,80,0.00,,,-99.99,,2013-09-20 05:23:00,
2013-09-19 22:53:00,65.0,59.0,29.47,West,261,0.0,1.0,81,0.00,,,-99.99,,2013-09-20 05:53:00,
2013-09-19 23:12:00,64.0,58.0,29.48,West,261,0.0,0.0,81,0.00,,,-99.99,,2013-09-20 06:12:00,
2013-09-19 23:22:00,64.0,58.0,29.48,West,261,0.0,0.0,81,0.00,,,-99.99,,2013-09-20 06:22:00,
2013-09-19 23:52:00,64.0,58.0,29.49,West,261,0.0,0.0,82,0.00,,,-99.99,,2013-09-20 06:52:00,